Time;durP1;ratioP1;P1;durP2;ratioP2;P2;SDS_P1;SDS_P2;PMS_P1;PMS_P2;Temp;Humidity;BMP_temperature;BMP_pressure;BME280_temperature;BME280_humidity;BME280_pressure;Samples;Min_cycle;Max_cycle;Signal;HPM_P1;HPM_P2
2022/05/28 00:01:11;;;;;;;16.05;2.67;;;11.60;99.90;;;;;;5032374;28;20049;-83
2022/05/28 00:03:38;;;;;;;11.38;1.73;;;11.30;99.90;;;;;;5032457;28;20052;-82
2022/05/28 00:06:09;;;;;;;7.00;1.85;;;11.30;99.90;;;;;;5032145;28;20044;-82
2022/05/28 00:08:34;;;;;;;;;;;11.30;99.90;;;;;;5032492;28;20041;-85
2022/05/28 00:11:00;;;;;;;10.63;1.58;;;11.30;99.90;;;;;;5031364;28;20302;-82
2022/05/28 00:13:26;;;;;;;9.15;1.50;;;11.40;99.90;;;;;;5033077;28;20041;-82
2022/05/28 00:15:52;;;;;;;11.40;1.98;;;11.40;99.90;;;;;;5036015;28;20045;-82
2022/05/28 00:18:18;;;;;;;8.98;1.38;;;11.50;99.90;;;;;;5034793;28;20052;-82
2022/05/28 00:20:43;;;;;;;7.00;1.38;;;11.70;99.90;;;;;;5035897;28;20386;-82
2022/05/28 00:23:09;;;;;;;6.30;1.15;;;11.50;99.90;;;;;;5034178;28;20116;-82
2022/05/28 00:25:35;;;;;;;8.48;1.13;;;11.50;99.90;;;;;;5036126;28;20052;-83
2022/05/28 00:28:01;;;;;;;10.07;1.40;;;11.50;99.90;;;;;;5035084;28;20037;-82
2022/05/28 00:30:27;;;;;;;11.23;1.95;;;11.70;99.90;;;;;;5035891;28;20041;-82
2022/05/28 00:32:52;;;;;;;14.02;1.38;;;11.60;99.90;;;;;;5018250;28;20037;-82
2022/05/28 00:35:19;;;;;;;9.07;1.63;;;11.60;99.90;;;;;;5035641;28;20049;-82
2022/05/28 00:37:47;;;;;;;10.45;1.58;;;11.40;99.90;;;;;;5034193;28;20080;-85
2022/05/28 00:40:19;;;;;;;8.82;1.30;;;11.20;99.90;;;;;;5035566;28;20048;-83
2022/05/28 00:42:45;;;;;;;7.45;1.02;;;11.10;99.90;;;;;;5035648;28;20038;-83
2022/05/28 00:45:11;;;;;;;7.57;1.20;;;10.80;99.90;;;;;;5035576;28;20445;-83
2022/05/28 00:47:43;;;;;;;7.57;1.48;;;10.60;99.90;;;;;;5035541;28;20061;-84
2022/05/28 00:50:10;;;;;;;8.45;1.05;;;10.50;99.90;;;;;;5035304;28;20375;-82
2022/05/28 00:52:36;;;;;;;6.35;1.05;;;10.30;99.90;;;;;;5035411;28;20049;-82
2022/05/28 00:55:03;;;;;;;7.28;1.13;;;10.20;99.90;;;;;;5035547;28;20080;-83
2022/05/28 00:57:29;;;;;;;5.30;1.10;;;10.10;99.90;;;;;;5034501;28;20527;-82
2022/05/28 00:59:55;;;;;;;7.10;1.02;;;10.00;99.90;;;;;;5035242;28;20041;-82
2022/05/28 01:02:44;;;;;;;5.85;0.80;;;9.90;99.90;;;;;;5033940;28;20403;-82
2022/05/28 01:05:52;;;;;;;5.63;0.98;;;9.70;99.90;;;;;;5033867;28;20053;-83
2022/05/28 01:08:38;;;;;;;6.20;0.82;;;9.40;99.90;;;;;;5032604;28;20152;-83
2022/05/28 01:11:09;;;;;;;8.38;1.08;;;9.30;99.90;;;;;;5035214;28;20082;-82
2022/05/28 01:13:38;;;;;;;9.18;1.30;;;9.30;99.90;;;;;;5033636;28;20072;-84
2022/05/28 01:16:15;;;;;;;7.55;1.05;;;9.20;99.90;;;;;;5035248;28;20045;-81
2022/05/28 01:19:01;;;;;;;11.52;1.15;;;9.10;99.90;;;;;;5033925;28;20045;-81
2022/05/28 01:21:38;;;;;;;8.00;1.27;;;9.10;99.90;;;;;;5033799;28;20068;-82
2022/05/28 01:24:16;;;;;;;6.25;1.13;;;9.10;99.90;;;;;;5033661;28;20497;-82
2022/05/28 01:26:47;;;;;;;9.15;1.10;;;9.20;99.90;;;;;;5032892;28;20084;-83
2022/05/28 01:29:17;;;;;;;8.23;1.27;;;9.10;99.90;;;;;;5034768;28;20041;-82
2022/05/28 01:31:45;;;;;;;10.93;1.45;;;9.10;99.90;;;;;;5034591;28;20037;-82
2022/05/28 01:34:14;;;;;;;10.80;1.50;;;9.00;99.90;;;;;;5034493;28;20062;-82
2022/05/28 01:36:41;;;;;;;6.47;1.00;;;9.00;99.90;;;;;;5034300;28;20486;-83
2022/05/28 01:39:07;;;;;;;7.55;1.10;;;9.00;99.90;;;;;;5034801;28;20080;-82
2022/05/28 01:41:36;;;;;;;10.63;1.23;;;9.00;99.90;;;;;;5034671;28;20034;-82
2022/05/28 01:44:03;;;;;;;13.80;1.42;;;8.90;99.90;;;;;;5034429;28;20048;-82
2022/05/28 01:46:31;;;;;;;9.52;1.38;;;8.90;99.90;;;;;;5034709;28;20033;-82
2022/05/28 01:48:58;;;;;;;10.18;1.40;;;9.10;99.90;;;;;;5034329;28;20475;-81
2022/05/28 01:51:29;;;;;;;7.72;1.10;;;8.90;99.90;;;;;;5033915;28;20104;-82
2022/05/28 01:54:09;;;;;;;13.93;1.60;;;9.20;99.90;;;;;;5034522;28;20044;-82
2022/05/28 01:56:38;;;;;;;14.10;1.65;;;9.10;99.90;;;;;;5002411;28;20088;-83
2022/05/28 01:59:04;;;;;;;8.95;1.25;;;8.90;99.90;;;;;;5000392;28;20092;-82
2022/05/28 02:01:30;;;;;;;14.65;1.50;;;8.90;99.90;;;;;;5034129;28;20042;-82
2022/05/28 02:03:58;;;;;;;8.88;1.35;;;8.80;99.90;;;;;;5033738;28;20052;-82
2022/05/28 02:06:25;;;;;;;10.60;1.30;;;8.90;99.90;;;;;;5034365;28;20045;-84
2022/05/28 02:08:52;;;;;;;9.32;1.27;;;9.00;99.90;;;;;;5034106;28;20041;-82
2022/05/28 02:11:34;;;;;;;12.00;1.67;;;8.80;99.90;;;;;;5032883;28;20081;-82
2022/05/28 02:14:26;;;;;;;18.80;1.60;;;8.80;99.90;;;;;;5033926;28;20068;-82
2022/05/28 02:17:04;;;;;;;9.75;1.63;;;8.80;99.90;;;;;;5032821;28;20049;-83
2022/05/28 02:19:44;;;;;;;8.52;1.38;;;8.70;99.90;;;;;;5033569;28;20467;-83
2022/05/28 02:22:17;;;;;;;6.68;1.23;;;8.70;99.90;;;;;;5032295;28;20456;-83
2022/05/28 02:24:50;;;;;;;9.27;1.30;;;8.70;99.90;;;;;;5033544;28;20091;-82
2022/05/28 02:27:19;;;;;;;12.55;1.80;;;8.70;99.90;;;;;;5033876;28;20053;-82
2022/05/28 02:29:45;;;;;;;12.90;1.60;;;8.70;99.90;;;;;;5032687;28;20491;-82
2022/05/28 02:32:17;;;;;;;13.48;1.40;;;8.80;99.90;;;;;;5033591;28;20077;-82
2022/05/28 02:34:45;;;;;;;12.95;1.60;;;8.70;99.90;;;;;;5033417;28;20042;-82
2022/05/28 02:37:13;;;;;;;11.35;1.50;;;8.80;99.90;;;;;;5032548;28;20049;-82
2022/05/28 02:39:38;;;;;;;8.77;1.63;;;8.70;99.90;;;;;;5015529;28;20049;-81
2022/05/28 02:42:05;;;;;;;7.22;1.40;;;8.70;99.90;;;;;;5032187;28;20103;-81
2022/05/28 02:44:30;;;;;;;9.27;1.52;;;8.70;99.90;;;;;;5032486;28;20120;-82
2022/05/28 02:46:56;;;;;;;10.20;1.33;;;8.70;99.90;;;;;;5016128;28;20144;-82
2022/05/28 02:49:23;;;;;;;10.80;1.42;;;8.80;99.90;;;;;;5033175;28;20041;-81
2022/05/28 02:51:49;;;;;;;7.18;0.95;;;8.70;99.90;;;;;;5031816;28;20485;-82
2022/05/28 02:54:15;;;;;;;10.25;1.55;;;8.70;99.90;;;;;;5031967;28;20033;-82
2022/05/28 02:56:40;;;;;;;12.23;1.40;;;8.60;99.90;;;;;;5032362;28;20037;-81
2022/05/28 02:59:06;;;;;;;8.32;1.05;;;8.60;99.90;;;;;;5032074;28;20037;-81
2022/05/28 03:01:33;;;;;;;10.95;2.08;;;8.60;99.90;;;;;;5015682;28;20042;-88
2022/05/28 03:04:00;;;;;;;9.05;1.45;;;8.60;99.90;;;;;;5033045;28;20041;-82
2022/05/28 03:06:26;;;;;;;7.32;1.30;;;8.60;99.90;;;;;;5032847;28;20048;-81
2022/05/28 03:08:52;;;;;;;10.48;1.70;;;8.50;99.90;;;;;;5032764;28;20077;-82
2022/05/28 03:11:19;;;;;;;8.75;1.33;;;8.50;99.90;;;;;;5032815;28;20038;-82
2022/05/28 03:13:46;;;;;;;7.95;1.55;;;8.70;99.90;;;;;;5032811;28;20095;-81
2022/05/28 03:16:12;;;;;;;6.30;1.13;;;8.50;99.90;;;;;;5032802;28;20431;-81
2022/05/28 03:18:38;;;;;;;8.88;1.50;;;8.40;99.90;;;;;;5031493;28;20398;-82
2022/05/28 03:21:04;;;;;;;7.50;1.30;;;8.40;99.90;;;;;;5031690;28;20103;-83
2022/05/28 03:23:30;;;;;;;11.55;1.52;;;8.40;99.90;;;;;;5031163;28;20095;-81
2022/05/28 03:25:56;;;;;;;10.20;1.33;;;8.40;99.90;;;;;;5032649;28;20069;-81
2022/05/28 03:28:22;;;;;;;9.50;1.75;;;8.40;99.90;;;;;;5032807;28;20475;-81
2022/05/28 03:30:48;;;;;;;10.07;1.38;;;8.60;99.90;;;;;;5032670;28;20106;-83
2022/05/28 03:33:14;;;;;;;9.00;1.50;;;8.40;99.90;;;;;;5032581;28;20045;-81
2022/05/28 03:35:40;;;;;;;10.75;1.45;;;8.40;99.90;;;;;;5032512;28;20033;-82
2022/05/28 03:38:07;;;;;;;11.05;1.80;;;8.30;99.90;;;;;;5032363;28;20528;-81
2022/05/28 03:40:33;;;;;;;13.68;1.75;;;8.30;99.90;;;;;;5032350;28;20391;-81
2022/05/28 03:42:59;;;;;;;9.63;1.52;;;8.30;99.90;;;;;;5032498;28;20052;-83
2022/05/28 03:45:26;;;;;;;11.90;1.70;;;8.30;99.90;;;;;;5032625;28;20041;-81
2022/05/28 03:47:52;;;;;;;8.80;1.50;;;8.40;99.90;;;;;;5015085;28;20033;-81
2022/05/28 03:50:18;;;;;;;10.43;1.58;;;8.70;99.90;;;;;;5036172;28;20518;-81
2022/05/28 03:52:43;;;;;;;12.63;1.60;;;8.40;99.90;;;;;;5036862;28;20041;-82
2022/05/28 03:55:09;;;;;;;10.75;1.50;;;8.60;99.90;;;;;;5036243;28;20048;-81
2022/05/28 03:57:35;;;;;;;15.50;1.70;;;8.50;99.90;;;;;;5036546;28;20052;-82
2022/05/28 04:00:03;;;;;;;11.63;1.83;;;8.50;99.90;;;;;;5036484;28;20034;-82
2022/05/28 04:02:28;;;;;;;10.52;1.60;;;8.50;99.90;;;;;;5035289;28;20135;-81
2022/05/28 04:04:54;;;;;;;10.35;1.77;;;8.50;99.90;;;;;;5035328;28;20435;-81
2022/05/28 04:07:20;;;;;;;9.30;1.30;;;8.80;99.90;;;;;;5035301;28;20029;-82
2022/05/28 04:09:46;;;;;;;10.93;1.73;;;8.60;99.90;;;;;;5035992;28;20529;-83
2022/05/28 04:12:12;;;;;;;13.77;2.10;;;8.60;99.90;;;;;;5036029;28;20037;-82
2022/05/28 04:14:38;;;;;;;13.07;2.05;;;8.60;99.90;;;;;;5035261;28;20045;-82
2022/05/28 04:17:05;;;;;;;16.08;1.95;;;8.60;99.90;;;;;;5036123;28;20128;-83
2022/05/28 04:19:31;;;;;;;11.60;1.95;;;8.70;99.90;;;;;;5035919;28;20037;-82
2022/05/28 04:21:57;;;;;;;14.77;2.22;;;8.70;99.90;;;;;;5034924;28;20112;-81
2022/05/28 04:24:23;;;;;;;9.20;1.50;;;8.70;99.90;;;;;;5035896;28;20052;-82
2022/05/28 04:26:48;;;;;;;16.50;2.17;;;8.70;99.90;;;;;;5034729;28;20049;-83
2022/05/28 04:29:14;;;;;;;13.30;1.83;;;8.70;99.90;;;;;;5036011;28;20557;-81
2022/05/28 04:31:40;;;;;;;12.38;1.77;;;8.80;99.90;;;;;;5018421;28;20521;-82
2022/05/28 04:34:06;;;;;;;11.32;1.42;;;8.80;99.90;;;;;;5036095;28;20455;-81
2022/05/28 04:36:31;;;;;;;7.70;1.50;;;8.90;99.90;;;;;;5036015;28;20037;-82
2022/05/28 04:38:57;;;;;;;11.25;1.40;;;8.90;99.90;;;;;;5035520;28;20459;-82
2022/05/28 04:41:22;;;;;;;11.15;1.73;;;9.00;99.90;;;;;;5035397;28;20394;-82
2022/05/28 04:43:48;;;;;;;15.88;1.75;;;9.00;99.90;;;;;;5034597;28;20037;-81
2022/05/28 04:46:14;;;;;;;11.98;1.65;;;9.30;99.90;;;;;;5034550;28;20038;-83
2022/05/28 04:48:39;;;;;;;14.13;1.83;;;9.10;99.90;;;;;;5018218;28;20049;-81
2022/05/28 04:51:05;;;;;;;13.35;1.90;;;9.20;99.90;;;;;;5035234;28;20598;-82
2022/05/28 04:53:31;;;;;;;14.23;2.22;;;9.20;99.90;;;;;;5035550;28;20091;-82
2022/05/28 04:55:57;;;;;;;15.13;1.80;;;9.30;99.90;;;;;;5035376;28;20045;-83
2022/05/28 04:58:23;;;;;;;10.07;1.73;;;9.30;99.90;;;;;;5034042;28;20394;-82
2022/05/28 05:00:49;;;;;;;9.60;1.80;;;9.50;99.90;;;;;;5034066;28;20038;-80
2022/05/28 05:03:15;;;;;;;12.40;2.45;;;9.60;99.90;;;;;;5034400;28;20133;-81
2022/05/28 05:05:41;;;;;;;9.90;1.73;;;9.70;99.90;;;;;;5033933;28;20045;-82
2022/05/28 05:08:07;;;;;;;11.73;1.70;;;9.70;99.90;;;;;;5035072;28;20052;-83
2022/05/28 05:10:33;;;;;;;16.13;2.20;;;9.80;99.90;;;;;;5034063;28;20084;-82
2022/05/28 05:13:00;;;;;;;14.45;1.60;;;9.90;99.90;;;;;;5034972;28;20041;-81
2022/05/28 05:15:26;;;;;;;13.48;1.95;;;9.90;99.90;;;;;;5035082;28;20037;-83
2022/05/28 05:17:51;;;;;;;17.50;2.13;;;10.10;99.90;;;;;;5035009;28;20522;-81
2022/05/28 05:20:17;;;;;;;9.55;1.73;;;10.10;99.90;;;;;;5034889;28;20080;-81
2022/05/28 05:22:43;;;;;;;10.27;1.73;;;10.20;99.90;;;;;;5016785;28;20055;-82
2022/05/28 05:25:12;;;;;;;12.57;1.65;;;10.20;99.90;;;;;;5035153;28;20087;-82
2022/05/28 05:27:39;;;;;;;12.25;1.77;;;10.30;99.90;;;;;;5033623;28;20053;-82
2022/05/28 05:30:06;;;;;;;14.75;2.50;;;10.40;99.90;;;;;;5033895;28;20053;-82
2022/05/28 05:32:32;;;;;;;14.30;2.15;;;10.50;99.90;;;;;;5034826;28;20076;-81
2022/05/28 05:34:58;;;;;;;13.05;1.60;;;10.60;99.90;;;;;;5033580;28;20053;-85
2022/05/28 05:37:24;;;;;;;11.68;1.83;;;10.60;99.90;;;;;;5033618;28;20053;-83
2022/05/28 05:39:49;;;;;;;11.63;2.40;;;10.70;99.90;;;;;;5034417;28;20124;-82
2022/05/28 05:42:15;;;;;;;16.23;2.28;;;10.80;99.90;;;;;;5017040;28;20049;-82
2022/05/28 05:44:41;;;;;;;16.25;2.10;;;10.90;99.90;;;;;;5034514;28;20049;-87
2022/05/28 05:47:07;;;;;;;10.73;2.25;;;11.00;99.90;;;;;;5017089;28;20052;-83
2022/05/28 05:49:33;;;;;;;15.48;2.25;;;11.00;99.90;;;;;;5034352;28;20037;-82
2022/05/28 05:51:59;;;;;;;11.13;1.92;;;11.10;99.90;;;;;;5034514;28;20417;-82
2022/05/28 05:54:25;;;;;;;11.32;2.33;;;11.20;99.90;;;;;;5034183;28;20045;-83
2022/05/28 05:56:52;;;;;;;13.77;2.03;;;11.20;99.90;;;;;;5033222;28;20486;-82
2022/05/28 05:59:17;;;;;;;11.48;1.73;;;11.30;99.90;;;;;;5034522;28;20500;-81
2022/05/28 06:01:43;;;;;;;15.15;2.25;;;11.30;99.90;;;;;;5034372;28;20132;-82
2022/05/28 06:04:09;;;;;;;12.00;1.80;;;11.40;99.90;;;;;;5032919;28;20112;-84
2022/05/28 06:06:35;;;;;;;9.80;1.80;;;11.30;99.90;;;;;;5034119;28;20045;-82
2022/05/28 06:09:00;;;;;;;19.48;2.45;;;11.50;99.90;;;;;;5033112;28;20045;-81
2022/05/28 06:11:26;;;;;;;11.88;2.20;;;11.70;99.90;;;;;;5033509;28;20048;-80
2022/05/28 06:13:52;;;;;;;10.48;2.20;;;11.70;99.90;;;;;;5033773;28;20037;-82
2022/05/28 06:16:18;;;;;;;12.93;2.10;;;11.70;99.90;;;;;;5032886;28;20095;-82
2022/05/28 06:18:44;;;;;;;13.85;2.40;;;11.70;99.90;;;;;;5016393;28;20044;-83
2022/05/28 06:21:10;;;;;;;9.95;2.03;;;11.60;99.90;;;;;;5032701;28;20411;-82
2022/05/28 06:23:37;;;;;;;16.42;2.83;;;11.50;99.90;;;;;;5032857;28;20060;-87
2022/05/28 06:26:04;;;;;;;16.48;2.70;;;11.40;99.90;;;;;;5033278;28;20175;-83
2022/05/28 06:28:31;;;;;;;16.02;2.65;;;11.00;99.90;;;;;;5032116;28;20045;-83
2022/05/28 06:31:06;;;;;;;14.57;2.60;;;10.60;99.90;;;;;;5031607;28;20079;-81
2022/05/28 06:33:33;;;;;;;16.42;2.72;;;10.40;99.90;;;;;;5028925;28;20476;-83
2022/05/28 06:36:01;;;;;;;19.52;3.00;;;10.20;99.90;;;;;;5031321;28;20138;-83
2022/05/28 06:38:27;;;;;;;16.92;2.50;;;10.10;99.90;;;;;;5031535;28;20084;-83
2022/05/28 06:40:53;;;;;;;13.57;2.60;;;10.00;99.90;;;;;;5032927;28;20124;-82
2022/05/28 06:43:20;;;;;;;8.57;2.10;;;10.00;99.90;;;;;;5032726;28;20042;-81
2022/05/28 06:45:46;;;;;;;8.27;2.00;;;10.20;99.90;;;;;;5015849;28;20049;-82
2022/05/28 06:48:12;;;;;;;12.57;2.38;;;9.90;99.90;;;;;;5033158;28;20089;-82
2022/05/28 06:53:22;;;;;;;18.10;2.25;;;9.90;99.90;;;;;;5032869;28;20450;-83
2022/05/28 06:55:47;;;;;;;12.15;2.10;;;10.10;99.90;;;;;;5031843;28;20052;-84
2022/05/28 06:58:14;;;;;;;11.82;2.03;;;10.50;99.90;;;;;;5032421;28;20088;-83
2022/05/28 07:00:39;;;;;;;11.65;2.33;;;11.60;99.90;;;;;;5033229;28;20053;-83
2022/05/28 07:03:11;;;;;;;11.73;2.15;;;12.80;99.90;;;;;;5033173;28;20042;-82
2022/05/28 07:05:36;;;;;;;13.07;2.30;;;13.60;99.90;;;;;;5033067;28;20203;-84
2022/05/28 07:08:02;;;;;;;12.57;2.22;;;14.20;99.90;;;;;;5031132;28;20118;-83
2022/05/28 07:10:28;;;;;;;9.10;2.50;;;14.60;99.90;;;;;;5033423;28;20064;-83
2022/05/28 07:12:54;;;;;;;15.48;2.30;;;15.30;99.90;;;;;;5033279;28;20056;-84
2022/05/28 07:15:20;;;;;;;10.40;2.25;;;15.80;99.90;;;;;;5033969;28;20041;-80
2022/05/28 07:17:46;;;;;;;9.07;2.35;;;16.60;99.90;;;;;;5035784;28;20098;-82
2022/05/28 07:20:12;;;;;;;11.32;2.33;;;17.20;99.90;;;;;;5016468;28;20054;-84
2022/05/28 07:22:38;;;;;;;11.52;1.85;;;17.50;99.90;;;;;;5032493;28;20053;-83
2022/05/28 07:25:05;;;;;;;17.08;2.58;;;16.70;99.90;;;;;;5034284;28;20061;-86
2022/05/28 07:27:30;;;;;;;10.55;2.03;;;15.90;99.90;;;;;;5033070;28;20041;-83
2022/05/28 07:29:56;;;;;;;13.95;2.30;;;15.10;99.90;;;;;;5033493;28;20044;-84
2022/05/28 07:32:25;;;;;;;13.52;2.35;;;14.60;99.90;;;;;;5032500;28;20396;-84
2022/05/28 07:34:51;;;;;;;13.93;2.15;;;14.00;99.90;;;;;;5031336;28;20045;-84
2022/05/28 07:37:17;;;;;;;13.05;2.50;;;13.90;99.90;;;;;;5031395;28;20128;-84
2022/05/28 07:39:43;;;;;;;15.40;2.10;;;13.50;99.90;;;;;;5031282;28;20388;-87
2022/05/28 07:42:09;;;;;;;16.30;2.92;;;13.40;99.90;;;;;;5032274;28;20080;-84
2022/05/28 07:44:35;;;;;;;15.10;2.03;;;13.50;99.90;;;;;;5031689;28;20107;-84
2022/05/28 07:47:05;;;;;;;12.73;2.30;;;13.40;99.90;;;;;;5032724;28;20468;-83
2022/05/28 07:49:31;;;;;;;14.30;2.42;;;13.80;99.90;;;;;;5031584;28;20062;-83
2022/05/28 07:51:57;;;;;;;15.20;2.30;;;14.00;99.90;;;;;;5032430;28;20092;-83
2022/05/28 07:54:22;;;;;;;16.70;2.50;;;13.80;99.90;;;;;;5032446;28;20077;-82
2022/05/28 07:56:48;;;;;;;11.25;1.75;;;13.60;99.90;;;;;;5032231;28;20045;-84
2022/05/28 07:59:14;;;;;;;18.83;2.70;;;13.30;99.90;;;;;;5032495;28;20045;-83
2022/05/28 08:01:40;;;;;;;16.05;2.13;;;13.20;99.90;;;;;;5032385;28;20045;-83
2022/05/28 08:04:06;;;;;;;15.68;2.33;;;13.30;99.90;;;;;;5032397;28;20072;-83
2022/05/28 08:06:32;;;;;;;12.00;2.17;;;13.30;99.90;;;;;;5032440;28;20068;-83
2022/05/28 08:08:59;;;;;;;14.40;2.22;;;13.40;99.90;;;;;;5032558;28;20049;-83
2022/05/28 08:11:25;;;;;;;15.77;2.50;;;13.50;99.90;;;;;;5032081;28;20095;-82
2022/05/28 08:13:52;;;;;;;14.70;2.50;;;13.60;99.90;;;;;;5031527;28;20133;-82
2022/05/28 08:16:19;;;;;;;15.82;2.58;;;13.90;99.90;;;;;;5031822;28;20060;-82
2022/05/28 08:18:45;;;;;;;18.48;2.60;;;14.40;99.90;;;;;;5031953;28;20491;-82
2022/05/28 08:23:56;;;;;;;16.50;2.38;;;14.80;99.90;;;;;;5030751;28;20080;-84
2022/05/28 08:26:22;;;;;;;12.70;2.20;;;15.00;99.90;;;;;;5031952;28;20053;-83
2022/05/28 08:28:49;;;;;;;12.32;2.13;;;15.40;99.90;;;;;;5031270;28;20045;-85
2022/05/28 08:31:15;;;;;;;12.52;1.83;;;16.30;99.90;;;;;;5031741;28;20053;-82
2022/05/28 08:33:42;;;;;;;12.57;2.35;;;17.60;99.90;;;;;;5029025;28;20045;-84
2022/05/28 08:36:08;;;;;;;13.43;2.22;;;18.80;96.90;;;;;;5028844;28;20050;-86
2022/05/28 08:38:34;;;;;;;11.07;2.30;;;18.90;93.60;;;;;;5034255;28;20483;-84
2022/05/28 08:41:25;;;;;;;9.27;1.80;;;18.20;94.60;;;;;;5034444;28;20046;-84
2022/05/28 08:44:17;;;;;;;12.33;2.40;;;17.30;90.80;;;;;;5031451;28;20049;-82
2022/05/28 08:46:46;;;;;;;14.02;1.98;;;16.30;99.90;;;;;;5032296;28;20303;-82
2022/05/28 08:49:14;;;;;;;9.38;2.25;;;15.40;99.90;;;;;;5034053;28;20371;-82
2022/05/28 08:51:49;;;;;;;13.52;2.38;;;14.80;99.90;;;;;;5033588;28;20046;-83
2022/05/28 08:54:28;;;;;;;13.13;2.40;;;14.40;99.90;;;;;;5032671;28;20525;-83
2022/05/28 08:56:59;;;;;;;13.38;2.13;;;14.20;99.90;;;;;;5031865;28;20530;-83
2022/05/28 08:59:39;;;;;;;10.63;2.10;;;14.50;99.90;;;;;;5033468;28;20383;-81
2022/05/28 09:02:07;;;;;;;13.20;2.17;;;15.50;99.90;;;;;;5035029;28;20053;-82
2022/05/28 09:04:40;;;;;;;13.70;2.00;;;16.10;99.90;;;;;;5034912;28;20073;-83
2022/05/28 09:07:11;;;;;;;12.57;2.13;;;16.00;99.90;;;;;;5035203;28;20407;-82
2022/05/28 09:09:41;;;;;;;14.32;2.00;;;15.80;99.90;;;;;;5034282;28;20060;-82
2022/05/28 09:12:23;;;;;;;9.05;1.63;;;15.60;99.90;;;;;;5034966;28;20521;-83
2022/05/28 09:14:49;;;;;;;14.75;2.55;;;15.40;99.90;;;;;;5034182;28;20534;-82
2022/05/28 09:17:32;;;;;;;12.05;1.90;;;15.40;99.90;;;;;;5033841;28;20176;-83
2022/05/28 09:20:17;;;;;;;13.60;2.65;;;15.60;99.90;;;;;;5033861;28;20057;-84
2022/05/28 09:22:43;;;;;;;12.18;2.03;;;15.90;99.90;;;;;;5034484;28;20057;-84
2022/05/28 09:25:10;;;;;;;12.68;1.92;;;16.00;99.90;;;;;;5033765;28;20049;-83
2022/05/28 09:28:28;;;;;;;13.55;2.72;;;15.90;99.90;;;;;;5017702;28;20061;-82
2022/05/28 09:31:25;;;;;;;14.35;2.58;;;15.80;99.90;;;;;;5034557;28;20056;-84
2022/05/28 09:33:58;;;;;;;10.40;2.20;;;16.10;99.90;;;;;;5034093;28;20066;-82
2022/05/28 09:36:47;;;;;;;15.00;2.60;;;16.70;97.40;;;;;;5019440;28;20091;-83
2022/05/28 09:39:34;;;;;;;11.38;2.28;;;16.70;93.50;;;;;;5026336;28;20427;-83
2022/05/28 09:42:29;;;;;;;11.00;2.00;;;16.10;96.60;;;;;;5051858;28;20132;-84
2022/05/28 09:45:30;;;;;;;16.25;2.10;;;15.40;98.50;;;;;;4972870;28;20062;-84
2022/05/28 09:47:56;;;;;;;13.98;2.25;;;15.00;99.90;;;;;;4947707;29;20067;-83
2022/05/28 09:50:28;;;;;;;11.35;2.28;;;15.00;99.90;;;;;;4953300;29;20129;-82
2022/05/28 09:56:05;;;;;;;14.00;2.13;;;17.40;90.80;;;;;;4973173;28;20440;-83
2022/05/28 09:58:35;;;;;;;9.18;1.88;;;18.20;84.10;;;;;;4956403;28;20133;-87
2022/05/28 10:01:06;;;;;;;11.10;1.67;;;18.50;80.00;;;;;;4957247;28;20073;-83
2022/05/28 10:06:20;;;;;;;12.48;1.75;;;18.20;78.10;;;;;;4951082;28;20151;-84
2022/05/28 10:08:46;;;;;;;9.00;1.70;;;17.80;84.50;;;;;;4940826;29;20457;-82
2022/05/28 10:11:15;;;;;;;11.80;2.05;;;18.40;77.70;;;;;;4937500;29;20051;-84
2022/05/28 10:13:46;;;;;;;8.82;1.67;;;18.70;72.70;;;;;;4937401;29;20090;-81
2022/05/28 10:16:16;;;;;;;11.70;2.25;;;19.00;73.20;;;;;;4953291;29;20586;-84
2022/05/28 10:19:08;;;;;;;13.70;2.28;;;19.70;70.30;;;;;;4952985;29;20051;-83
2022/05/28 10:21:39;;;;;;;9.48;2.28;;;21.00;65.60;;;;;;4974865;28;20184;-83
2022/05/28 10:24:12;;;;;;;;;;;22.30;59.10;;;;;;5016839;28;20041;-83
2022/05/28 10:26:47;;;;;;;10.75;2.05;;;22.90;53.50;;;;;;5030265;28;19928;-83
2022/05/28 10:29:27;;;;;;;9.77;1.83;;;22.50;56.90;;;;;;5033575;28;20103;-83
2022/05/28 10:31:55;;;;;;;10.85;2.13;;;21.60;57.10;;;;;;5032599;28;20057;-83
2022/05/28 10:34:41;;;;;;;11.35;2.28;;;20.20;61.90;;;;;;5032850;28;20499;-82
2022/05/28 10:37:14;;;;;;;10.20;2.22;;;18.70;66.80;;;;;;5034043;28;20084;-84
2022/05/28 10:39:41;;;;;;;11.27;1.63;;;17.70;72.30;;;;;;5015076;28;20568;-84
2022/05/28 10:42:12;;;;;;;14.90;1.98;;;17.00;77.50;;;;;;5013144;28;20402;-82
2022/05/28 10:44:44;;;;;;;10.43;2.17;;;16.80;78.60;;;;;;5034164;28;20037;-83
2022/05/28 10:47:41;;;;;;;7.60;1.58;;;17.00;75.30;;;;;;5034093;28;20045;-82
2022/05/28 10:50:48;;;;;;;10.13;1.80;;;17.10;68.40;;;;;;5013977;28;20268;-84
2022/05/28 10:54:02;;;;;;;10.00;1.85;;;17.00;69.10;;;;;;5028884;28;20053;-84
2022/05/28 10:56:43;;;;;;;7.80;1.80;;;17.10;68.30;;;;;;5032895;28;20049;-83
2022/05/28 10:59:27;;;;;;;6.10;1.40;;;17.30;69.90;;;;;;5054260;28;20554;-82
2022/05/28 11:02:06;;;;;;;15.30;2.17;;;17.20;68.80;;;;;;5034154;28;20079;-83
2022/05/28 11:04:31;;;;;;;7.45;1.95;;;17.00;71.60;;;;;;5032623;28;20084;-82
2022/05/28 11:07:27;;;;;;;7.15;1.73;;;16.80;73.60;;;;;;5033093;28;20099;-82
2022/05/28 11:10:09;;;;;;;11.02;2.15;;;16.60;73.60;;;;;;5032087;28;20095;-82
2022/05/28 11:12:54;;;;;;;11.02;2.03;;;16.50;81.50;;;;;;5033199;28;20142;-82
2022/05/28 11:15:48;;;;;;;11.05;1.98;;;17.10;71.60;;;;;;5034005;28;20164;-82
2022/05/28 11:18:38;;;;;;;9.82;1.40;;;17.00;72.00;;;;;;5034071;28;20050;-82
2022/05/28 11:21:31;;;;;;;12.02;2.00;;;16.70;76.90;;;;;;5040730;28;20052;-84
2022/05/28 11:24:15;;;;;;;12.15;2.45;;;16.10;83.10;;;;;;5037570;28;20136;-79
2022/05/28 11:27:07;;;;;;;9.13;2.20;;;15.70;93.20;;;;;;5040524;28;20437;-82
2022/05/28 11:29:46;;;;;;;10.10;2.03;;;15.60;93.20;;;;;;5019939;28;20053;-82
2022/05/28 11:32:23;;;;;;;10.20;1.45;;;15.80;90.90;;;;;;5037634;28;20466;-82
2022/05/28 11:35:01;;;;;;;12.38;1.63;;;16.00;82.90;;;;;;5037765;28;20379;-81
2022/05/28 11:37:51;;;;;;;9.73;1.75;;;16.40;80.00;;;;;;5016610;28;20060;-82
2022/05/28 11:40:36;;;;;;;10.18;2.00;;;16.80;76.60;;;;;;5037363;28;20045;-82
2022/05/28 11:43:11;;;;;;;10.15;1.73;;;17.40;72.90;;;;;;5027825;28;20095;-85
2022/05/28 11:46:16;;;;;;;15.38;2.28;;;18.10;67.70;;;;;;5036893;28;20053;-81
2022/05/28 11:52:11;;;;;;;12.60;2.33;;;18.30;73.10;;;;;;5032796;28;20111;-83
2022/05/28 11:54:43;;;;;;;12.00;2.13;;;17.70;76.60;;;;;;5026966;28;20046;-83
2022/05/28 11:57:27;;;;;;;10.73;2.22;;;17.30;85.90;;;;;;5032368;28;20445;-82
2022/05/28 11:59:54;;;;;;;11.30;2.10;;;17.30;86.90;;;;;;5032770;28;20050;-82
2022/05/28 12:02:32;;;;;;;11.52;2.10;;;17.20;86.10;;;;;;5031913;28;20076;-83
2022/05/28 12:04:57;;;;;;;12.05;1.80;;;17.30;91.70;;;;;;5033464;28;20080;-82
2022/05/28 12:07:39;;;;;;;11.80;1.73;;;17.80;91.80;;;;;;5031450;28;20478;-85
2022/05/28 12:10:27;;;;;;;11.95;2.33;;;18.20;70.30;;;;;;5036831;28;20046;-84
2022/05/28 12:12:58;;;;;;;12.07;1.80;;;18.00;78.20;;;;;;5037213;28;20045;-83
2022/05/28 12:15:27;;;;;;;9.73;2.25;;;17.50;78.50;;;;;;5036356;28;20041;-82
2022/05/28 12:18:15;;;;;;;11.43;2.30;;;17.30;83.00;;;;;;5036324;28;20132;-81
2022/05/28 12:20:58;;;;;;;7.80;1.60;;;18.40;81.60;;;;;;5036351;28;20128;-82
2022/05/28 12:23:37;;;;;;;9.25;2.05;;;20.30;63.50;;;;;;5036129;28;20542;-82
2022/05/28 12:26:47;;;;;;;10.85;1.90;;;20.90;56.70;;;;;;5037690;28;20061;-82
2022/05/28 12:29:40;;;;;;;10.15;2.10;;;20.40;55.70;;;;;;5035481;28;20049;-84
2022/05/28 12:32:20;;;;;;;10.50;2.03;;;18.90;62.60;;;;;;5037298;28;20064;-83
2022/05/28 12:35:06;;;;;;;13.00;2.20;;;17.70;72.00;;;;;;5054037;28;20056;-82
2022/05/28 12:37:35;;;;;;;13.48;2.13;;;16.70;88.90;;;;;;5054265;28;20053;-82
2022/05/28 12:40:22;;;;;;;9.40;1.85;;;16.20;91.70;;;;;;5037809;28;20613;-82
2022/05/28 12:42:48;;;;;;;11.23;1.80;;;16.00;96.60;;;;;;5053734;28;20057;-84
2022/05/28 12:45:31;;;;;;;12.38;2.17;;;16.10;94.10;;;;;;5037127;28;20160;-83
2022/05/28 12:48:07;;;;;;;12.95;2.22;;;16.20;92.50;;;;;;5036885;28;20131;-84
2022/05/28 12:50:59;;;;;;;8.90;1.88;;;16.30;88.30;;;;;;5053397;28;20056;-84
2022/05/28 12:53:26;;;;;;;11.88;2.08;;;16.50;87.50;;;;;;5036959;28;20051;-85
2022/05/28 12:56:20;;;;;;;9.93;2.25;;;17.40;78.00;;;;;;5053893;28;20061;-83
2022/05/28 12:58:46;;;;;;;7.55;1.52;;;18.80;68.00;;;;;;5053445;28;20102;-84
2022/05/28 13:01:29;;;;;;;11.07;2.25;;;20.00;63.70;;;;;;5037240;28;20422;-84
2022/05/28 13:03:55;;;;;;;11.50;2.00;;;21.10;56.20;;;;;;5036625;28;20049;-84
2022/05/28 13:06:31;;;;;;;12.75;2.15;;;21.70;54.40;;;;;;5052744;28;20087;-84
2022/05/28 13:09:07;;;;;;;8.45;1.90;;;21.90;53.90;;;;;;5047841;28;20581;-83
2022/05/28 13:11:50;;;;;;;5.75;1.45;;;22.10;52.90;;;;;;5035213;28;20049;-84
2022/05/28 13:14:38;;;;;;;8.15;1.80;;;21.10;52.70;;;;;;5033912;28;20054;-83
2022/05/28 13:17:32;;;;;;;8.05;1.65;;;20.60;54.00;;;;;;5034934;28;20144;-82
2022/05/28 13:20:03;;;;;;;5.72;1.40;;;20.60;52.90;;;;;;5038469;28;20081;-87